sensor_id;sensor_type;location;lat;lon;timestamp;pressure;altitude;pressure_sealevel;temperature;humidity
61337;BME280;47212;41.326;2.104;2023-04-27T00:00:42;101630.38;;;17.77;75.89
61337;BME280;47212;41.326;2.104;2023-04-27T00:05:44;101623.00;;;17.72;75.59
61337;BME280;47212;41.326;2.104;2023-04-27T00:10:48;101620.00;;;17.69;75.19
61337;BME280;47212;41.326;2.104;2023-04-27T00:15:50;101615.03;;;17.66;74.89
61337;BME280;47212;41.326;2.104;2023-04-27T00:20:52;101620.56;;;17.61;74.57
61337;BME280;47212;41.326;2.104;2023-04-27T00:26:02;101617.03;;;17.55;74.44
61337;BME280;47212;41.326;2.104;2023-04-27T00:31:04;101618.72;;;17.51;74.40
61337;BME280;47212;41.326;2.104;2023-04-27T00:36:16;101628.38;;;17.48;74.17
61337;BME280;47212;41.326;2.104;2023-04-27T00:41:23;101617.94;;;17.45;74.05
61337;BME280;47212;41.326;2.104;2023-04-27T00:46:34;101608.63;;;17.41;74.25
61337;BME280;47212;41.326;2.104;2023-04-27T00:51:39;101597.38;;;17.38;74.43
61337;BME280;47212;41.326;2.104;2023-04-27T00:56:41;101588.28;;;17.37;73.76
61337;BME280;47212;41.326;2.104;2023-04-27T01:01:45;101571.78;;;17.32;73.94
61337;BME280;47212;41.326;2.104;2023-04-27T01:06:47;101572.06;;;17.31;74.03
61337;BME280;47212;41.326;2.104;2023-04-27T01:11:50;101569.91;;;17.28;73.76
61337;BME280;47212;41.326;2.104;2023-04-27T01:16:52;101571.59;;;17.24;73.98
61337;BME280;47212;41.326;2.104;2023-04-27T01:21:54;101567.75;;;17.19;73.77
61337;BME280;47212;41.326;2.104;2023-04-27T01:26:59;101571.38;;;17.15;73.54
61337;BME280;47212;41.326;2.104;2023-04-27T01:32:27;101567.25;;;17.12;73.20
61337;BME280;47212;41.326;2.104;2023-04-27T01:40:31;101556.28;;;17.07;73.76
61337;BME280;47212;41.326;2.104;2023-04-27T01:45:33;101553.53;;;17.07;73.60
61337;BME280;47212;41.326;2.104;2023-04-27T01:50:35;101554.66;;;17.06;73.99
61337;BME280;47212;41.326;2.104;2023-04-27T01:55:43;101542.00;;;17.05;73.45
61337;BME280;47212;41.326;2.104;2023-04-27T02:00:45;101548.63;;;17.04;73.77
61337;BME280;47212;41.326;2.104;2023-04-27T02:05:48;101543.97;;;17.00;73.34
61337;BME280;47212;41.326;2.104;2023-04-27T02:10:50;101542.09;;;16.95;73.20
61337;BME280;47212;41.326;2.104;2023-04-27T02:15:52;101549.00;;;16.87;73.13
61337;BME280;47212;41.326;2.104;2023-04-27T02:20:57;101539.97;;;16.82;73.26
61337;BME280;47212;41.326;2.104;2023-04-27T02:25:59;101533.97;;;16.75;73.44
61337;BME280;47212;41.326;2.104;2023-04-27T02:31:02;101536.47;;;16.71;73.81
61337;BME280;47212;41.326;2.104;2023-04-27T02:36:04;101530.72;;;16.68;73.82
61337;BME280;47212;41.326;2.104;2023-04-27T02:44:35;101520.81;;;16.62;74.05
61337;BME280;47212;41.326;2.104;2023-04-27T02:49:38;101516.72;;;16.59;74.54
61337;BME280;47212;41.326;2.104;2023-04-27T02:54:41;101521.38;;;16.59;74.04
61337;BME280;47212;41.326;2.104;2023-04-27T02:59:43;101523.06;;;16.54;74.51
61337;BME280;47212;41.326;2.104;2023-04-27T03:04:45;101526.38;;;16.51;74.58
61337;BME280;47212;41.326;2.104;2023-04-27T03:09:48;101514.31;;;16.47;74.51
61337;BME280;47212;41.326;2.104;2023-04-27T03:14:50;101509.88;;;16.46;74.71
61337;BME280;47212;41.326;2.104;2023-04-27T03:19:52;101516.19;;;16.47;74.78
61337;BME280;47212;41.326;2.104;2023-04-27T03:24:57;101513.75;;;16.45;74.48
61337;BME280;47212;41.326;2.104;2023-04-27T03:29:59;101513.75;;;16.40;75.07
61337;BME280;47212;41.326;2.104;2023-04-27T03:35:01;101508.84;;;16.37;74.47
61337;BME280;47212;41.326;2.104;2023-04-27T03:40:04;101514.88;;;16.34;74.61
61337;BME280;47212;41.326;2.104;2023-04-27T03:45:10;101502.81;;;16.30;74.76
61337;BME280;47212;41.326;2.104;2023-04-27T03:50:16;101494.88;;;16.29;74.80
61337;BME280;47212;41.326;2.104;2023-04-27T03:55:18;101503.09;;;16.29;75.38
61337;BME280;47212;41.326;2.104;2023-04-27T04:08:33;101494.34;;;16.21;75.35
61337;BME280;47212;41.326;2.104;2023-04-27T04:13:35;101494.09;;;16.18;75.61
61337;BME280;47212;41.326;2.104;2023-04-27T04:18:38;101499.03;;;16.16;75.51
61337;BME280;47212;41.326;2.104;2023-04-27T04:24:17;101487.50;;;16.14;75.49
61337;BME280;47212;41.326;2.104;2023-04-27T04:30:00;101478.19;;;16.10;75.38
61337;BME280;47212;41.326;2.104;2023-04-27T04:35:46;101491.66;;;16.06;75.90
61337;BME280;47212;41.326;2.104;2023-04-27T04:40:48;101483.72;;;16.05;76.19
61337;BME280;47212;41.326;2.104;2023-04-27T04:45:51;101497.44;;;16.05;75.85
61337;BME280;47212;41.326;2.104;2023-04-27T04:50:53;101488.69;;;15.98;76.83
61337;BME280;47212;41.326;2.104;2023-04-27T04:55:55;101490.34;;;15.93;76.24
61337;BME280;47212;41.326;2.104;2023-04-27T05:00:57;101490.34;;;15.93;76.25
61337;BME280;47212;41.326;2.104;2023-04-27T05:06:00;101490.88;;;15.96;76.77
61337;BME280;47212;41.326;2.104;2023-04-27T05:11:02;101486.22;;;15.96;76.58
61337;BME280;47212;41.326;2.104;2023-04-27T05:16:05;101492.53;;;15.97;77.58
61337;BME280;47212;41.326;2.104;2023-04-27T05:21:16;101492.53;;;15.97;76.44
61337;BME280;47212;41.326;2.104;2023-04-27T05:26:21;101495.28;;;15.97;76.47
61337;BME280;47212;41.326;2.104;2023-04-27T05:31:23;101498.03;;;15.97;77.50
61337;BME280;47212;41.326;2.104;2023-04-27T05:36:32;101499.38;;;15.99;76.46
61337;BME280;47212;41.326;2.104;2023-04-27T05:41:34;101502.41;;;16.03;76.74
61337;BME280;47212;41.326;2.104;2023-04-27T05:46:37;101513.34;;;16.08;76.41
61337;BME280;47212;41.326;2.104;2023-04-27T05:51:39;101512.78;;;16.16;76.25
61337;BME280;47212;41.326;2.104;2023-04-27T05:56:42;101531.41;;;16.24;76.33
61337;BME280;47212;41.326;2.104;2023-04-27T06:01:44;101527.56;;;16.30;76.55
61337;BME280;47212;41.326;2.104;2023-04-27T06:06:46;101522.28;;;16.39;75.90
61337;BME280;47212;41.326;2.104;2023-04-27T06:11:48;101519.25;;;16.50;76.10
61337;BME280;47212;41.326;2.104;2023-04-27T06:16:50;101531.25;;;16.65;75.96
61337;BME280;47212;41.326;2.104;2023-04-27T06:21:53;101539.44;;;16.80;75.67
61337;BME280;47212;41.326;2.104;2023-04-27T06:26:55;101546.47;;;16.96;75.29
61337;BME280;47212;41.326;2.104;2023-04-27T06:31:57;101548.00;;;17.12;75.06
61337;BME280;47212;41.326;2.104;2023-04-27T06:37:00;101543.50;;;17.27;74.62
61337;BME280;47212;41.326;2.104;2023-04-27T06:42:02;101543.94;;;17.44;74.26
61337;BME280;47212;41.326;2.104;2023-04-27T06:47:07;101536.84;;;17.67;73.65
61337;BME280;47212;41.326;2.104;2023-04-27T06:52:09;101536.88;;;17.91;73.13
61337;BME280;47212;41.326;2.104;2023-04-27T06:57:11;101540.44;;;18.15;72.71
61337;BME280;47212;41.326;2.104;2023-04-27T07:02:13;101548.16;;;18.42;71.74
61337;BME280;47212;41.326;2.104;2023-04-27T07:07:26;101562.81;;;18.61;71.39
61337;BME280;47212;41.326;2.104;2023-04-27T07:12:28;101560.28;;;18.84;68.54
61337;BME280;47212;41.326;2.104;2023-04-27T07:17:34;101561.91;;;19.03;69.70
61337;BME280;47212;41.326;2.104;2023-04-27T07:22:36;101556.19;;;19.19;69.25
61337;BME280;47212;41.326;2.104;2023-04-27T07:27:38;101562.75;;;19.23;68.58
61337;BME280;47212;41.326;2.104;2023-04-27T07:32:40;101570.44;;;19.26;68.36
61337;BME280;47212;41.326;2.104;2023-04-27T07:37:42;101552.66;;;19.32;67.90
61337;BME280;47212;41.326;2.104;2023-04-27T07:42:46;101546.88;;;19.47;67.42
61337;BME280;47212;41.326;2.104;2023-04-27T07:47:48;101556.59;;;19.77;66.43
61337;BME280;47212;41.326;2.104;2023-04-27T07:52:52;101549.69;;;20.07;65.34
61337;BME280;47212;41.326;2.104;2023-04-27T07:57:57;101555.22;;;20.34;64.79
61337;BME280;47212;41.326;2.104;2023-04-27T08:02:59;101545.00;;;20.49;64.63
61337;BME280;47212;41.326;2.104;2023-04-27T08:08:02;101552.13;;;20.63;64.15
61337;BME280;47212;41.326;2.104;2023-04-27T08:13:04;101552.09;;;20.77;62.95
61337;BME280;47212;41.326;2.104;2023-04-27T08:18:06;101554.94;;;20.99;62.14
61337;BME280;47212;41.326;2.104;2023-04-27T08:23:09;101552.41;;;21.25;61.24
61337;BME280;47212;41.326;2.104;2023-04-27T08:28:12;101553.47;;;21.38;60.55
61337;BME280;47212;41.326;2.104;2023-04-27T08:33:14;101548.63;;;21.44;60.31
61337;BME280;47212;41.326;2.104;2023-04-27T08:38:17;101564.84;;;21.59;60.05
61337;BME280;47212;41.326;2.104;2023-04-27T08:43:19;101556.84;;;21.80;59.75
61337;BME280;47212;41.326;2.104;2023-04-27T08:48:21;101551.50;;;21.92;58.29
61337;BME280;47212;41.326;2.104;2023-04-27T08:53:23;101541.16;;;22.06;57.94
61337;BME280;47212;41.326;2.104;2023-04-27T08:58:40;101554.91;;;22.20;54.87
61337;BME280;47212;41.326;2.104;2023-04-27T09:03:44;101542.06;;;22.33;56.64
61337;BME280;47212;41.326;2.104;2023-04-27T09:08:50;101548.91;;;22.27;56.80
61337;BME280;47212;41.326;2.104;2023-04-27T09:13:52;101556.25;;;22.31;56.00
61337;BME280;47212;41.326;2.104;2023-04-27T09:18:55;101557.56;;;22.34;55.48
61337;BME280;47212;41.326;2.104;2023-04-27T09:24:08;101549.59;;;22.49;52.95
61337;BME280;47212;41.326;2.104;2023-04-27T09:29:39;101567.47;;;22.66;51.95
61337;BME280;47212;41.326;2.104;2023-04-27T09:34:42;101562.72;;;22.66;53.46
61337;BME280;47212;41.326;2.104;2023-04-27T09:39:44;101566.13;;;22.54;54.07
61337;BME280;47212;41.326;2.104;2023-04-27T09:44:52;101572.31;;;22.51;53.21
61337;BME280;47212;41.326;2.104;2023-04-27T09:49:57;101575.56;;;22.53;52.12
61337;BME280;47212;41.326;2.104;2023-04-27T09:55:01;101584.03;;;22.48;53.19
61337;BME280;47212;41.326;2.104;2023-04-27T10:11:14;101570.75;;;22.28;51.42
61337;BME280;47212;41.326;2.104;2023-04-27T10:16:17;101574.41;;;22.46;52.87
61337;BME280;47212;41.326;2.104;2023-04-27T10:21:22;101583.78;;;22.59;52.53
61337;BME280;47212;41.326;2.104;2023-04-27T10:26:28;101588.50;;;22.58;52.10
61337;BME280;47212;41.326;2.104;2023-04-27T10:31:30;101578.06;;;22.55;52.10
61337;BME280;47212;41.326;2.104;2023-04-27T10:36:38;101585.41;;;22.60;50.75
61337;BME280;47212;41.326;2.104;2023-04-27T10:41:52;101585.09;;;22.61;49.99
61337;BME280;47212;41.326;2.104;2023-04-27T10:46:59;101578.25;;;22.76;50.59
61337;BME280;47212;41.326;2.104;2023-04-27T10:52:02;101580.56;;;22.82;51.06
61337;BME280;47212;41.326;2.104;2023-04-27T10:57:09;101576.81;;;22.87;49.34
61337;BME280;47212;41.326;2.104;2023-04-27T11:02:12;101563.13;;;22.91;50.83
61337;BME280;47212;41.326;2.104;2023-04-27T11:07:22;101575.19;;;22.95;48.75
61337;BME280;47212;41.326;2.104;2023-04-27T11:12:24;101557.22;;;23.01;49.78
61337;BME280;47212;41.326;2.104;2023-04-27T11:17:30;101556.72;;;23.25;49.07
61337;BME280;47212;41.326;2.104;2023-04-27T11:22:42;101544.13;;;23.36;49.22
61337;BME280;47212;41.326;2.104;2023-04-27T11:27:52;101543.66;;;23.34;49.53
61337;BME280;47212;41.326;2.104;2023-04-27T11:33:07;101530.59;;;23.17;48.01
61337;BME280;47212;41.326;2.104;2023-04-27T11:38:15;101542.19;;;23.19;47.63
61337;BME280;47212;41.326;2.104;2023-04-27T11:43:26;101536.50;;;22.98;49.17
61337;BME280;47212;41.326;2.104;2023-04-27T11:48:28;101532.56;;;22.91;49.26
61337;BME280;47212;41.326;2.104;2023-04-27T11:53:32;101526.38;;;22.85;49.22
61337;BME280;47212;41.326;2.104;2023-04-27T11:58:36;101530.13;;;22.89;49.08
61337;BME280;47212;41.326;2.104;2023-04-27T12:03:39;101510.84;;;22.93;49.38
61337;BME280;47212;41.326;2.104;2023-04-27T12:08:42;101494.19;;;22.93;48.93
61337;BME280;47212;41.326;2.104;2023-04-27T12:13:44;101506.94;;;23.02;49.50
61337;BME280;47212;41.326;2.104;2023-04-27T12:18:49;101508.56;;;23.12;48.80
61337;BME280;47212;41.326;2.104;2023-04-27T12:23:51;101508.22;;;23.22;48.28
61337;BME280;47212;41.326;2.104;2023-04-27T12:28:56;101503.81;;;23.12;47.63
61337;BME280;47212;41.326;2.104;2023-04-27T12:33:58;101496.97;;;22.93;49.52
61337;BME280;47212;41.326;2.104;2023-04-27T12:44:14;101498.78;;;22.80;48.60
61337;BME280;47212;41.326;2.104;2023-04-27T12:49:17;101501.03;;;22.69;48.65
61337;BME280;47212;41.326;2.104;2023-04-27T12:54:20;101505.59;;;22.56;49.11
61337;BME280;47212;41.326;2.104;2023-04-27T12:59:22;101492.53;;;22.57;50.10
61337;BME280;47212;41.326;2.104;2023-04-27T13:04:25;101482.56;;;22.73;50.13
61337;BME280;47212;41.326;2.104;2023-04-27T13:09:27;101492.53;;;22.74;49.92
61337;BME280;47212;41.326;2.104;2023-04-27T13:14:29;101478.66;;;22.74;50.12
61337;BME280;47212;41.326;2.104;2023-04-27T13:19:37;101471.81;;;22.72;49.91
61337;BME280;47212;41.326;2.104;2023-04-27T13:24:40;101478.16;;;22.72;50.55
61337;BME280;47212;41.326;2.104;2023-04-27T13:29:42;101466.56;;;22.79;50.90
61337;BME280;47212;41.326;2.104;2023-04-27T13:34:45;101474.91;;;22.70;50.34
61337;BME280;47212;41.326;2.104;2023-04-27T13:39:47;101451.06;;;22.69;50.61
61337;BME280;47212;41.326;2.104;2023-04-27T13:44:49;101435.53;;;22.51;50.76
61337;BME280;47212;41.326;2.104;2023-04-27T13:49:51;101452.53;;;22.58;50.54
61337;BME280;47212;41.326;2.104;2023-04-27T13:54:53;101430.31;;;22.49;51.22
61337;BME280;47212;41.326;2.104;2023-04-27T13:59:55;101436.97;;;22.22;51.65
61337;BME280;47212;41.326;2.104;2023-04-27T14:04:59;101441.38;;;22.15;52.22
61337;BME280;47212;41.326;2.104;2023-04-27T14:10:02;101431.44;;;22.22;52.01
61337;BME280;47212;41.326;2.104;2023-04-27T14:15:05;101423.09;;;22.14;52.45
61337;BME280;47212;41.326;2.104;2023-04-27T14:20:08;101429.78;;;22.04;53.37
61337;BME280;47212;41.326;2.104;2023-04-27T14:25:10;101429.94;;;22.08;53.36
61337;BME280;47212;41.326;2.104;2023-04-27T14:30:12;101423.25;;;22.09;53.33
61337;BME280;47212;41.326;2.104;2023-04-27T14:35:15;101422.78;;;22.15;53.82
61337;BME280;47212;41.326;2.104;2023-04-27T14:40:17;101426.53;;;22.19;53.41
61337;BME280;47212;41.326;2.104;2023-04-27T14:45:19;101419.69;;;22.17;53.18
61337;BME280;47212;41.326;2.104;2023-04-27T14:50:27;101416.50;;;21.92;53.66
61337;BME280;47212;41.326;2.104;2023-04-27T14:55:29;101413.06;;;21.87;53.89
61337;BME280;47212;41.326;2.104;2023-04-27T15:00:32;101415.34;;;21.85;54.20
61337;BME280;47212;41.326;2.104;2023-04-27T15:05:34;101398.56;;;21.90;54.34
61337;BME280;47212;41.326;2.104;2023-04-27T15:10:36;101410.78;;;21.89;54.19
61337;BME280;47212;41.326;2.104;2023-04-27T15:15:38;101393.19;;;21.85;54.37
61337;BME280;47212;41.326;2.104;2023-04-27T15:20:50;101389.41;;;21.81;54.05
61337;BME280;47212;41.326;2.104;2023-04-27T15:25:57;101390.56;;;21.80;53.73
61337;BME280;47212;41.326;2.104;2023-04-27T15:30:59;101380.13;;;21.85;54.27
61337;BME280;47212;41.326;2.104;2023-04-27T15:36:01;101366.91;;;21.74;54.45
61337;BME280;47212;41.326;2.104;2023-04-27T15:41:03;101353.81;;;21.57;54.60
61337;BME280;47212;41.326;2.104;2023-04-27T15:46:05;101344.34;;;21.58;55.01
61337;BME280;47212;41.326;2.104;2023-04-27T15:51:07;101355.59;;;21.61;55.17
61337;BME280;47212;41.326;2.104;2023-04-27T15:56:11;101365.69;;;21.57;55.49
61337;BME280;47212;41.326;2.104;2023-04-27T16:01:21;101350.34;;;21.51;55.73
61337;BME280;47212;41.326;2.104;2023-04-27T16:06:30;101352.81;;;21.53;56.31
61337;BME280;47212;41.326;2.104;2023-04-27T16:11:37;101341.22;;;21.42;57.17
61337;BME280;47212;41.326;2.104;2023-04-27T16:16:39;101339.38;;;21.29;57.83
61337;BME280;47212;41.326;2.104;2023-04-27T16:21:41;101345.66;;;21.21;58.79
61337;BME280;47212;41.326;2.104;2023-04-27T16:26:45;101339.13;;;21.17;59.53
61337;BME280;47212;41.326;2.104;2023-04-27T16:31:51;101348.72;;;21.11;60.45
61337;BME280;47212;41.326;2.104;2023-04-27T16:36:54;101342.81;;;21.04;60.24
61337;BME280;47212;41.326;2.104;2023-04-27T16:41:57;101343.59;;;20.95;60.93
61337;BME280;47212;41.326;2.104;2023-04-27T16:46:59;101332.69;;;20.99;61.29
61337;BME280;47212;41.326;2.104;2023-04-27T16:52:01;101334.16;;;20.96;61.89
61337;BME280;47212;41.326;2.104;2023-04-27T16:57:06;101342.72;;;20.86;63.08
61337;BME280;47212;41.326;2.104;2023-04-27T17:02:08;101328.50;;;20.79;64.14
61337;BME280;47212;41.326;2.104;2023-04-27T17:07:25;101314.16;;;20.77;63.96
61337;BME280;47212;41.326;2.104;2023-04-27T17:12:29;101321.59;;;20.90;63.62
61337;BME280;47212;41.326;2.104;2023-04-27T17:17:32;101331.75;;;21.04;63.68
61337;BME280;47212;41.326;2.104;2023-04-27T17:22:35;101329.78;;;21.04;63.71
61337;BME280;47212;41.326;2.104;2023-04-27T17:27:37;101345.22;;;20.96;63.66
61337;BME280;47212;41.326;2.104;2023-04-27T17:32:39;101353.66;;;20.91;64.76
61337;BME280;47212;41.326;2.104;2023-04-27T17:37:42;101354.78;;;20.90;65.00
61337;BME280;47212;41.326;2.104;2023-04-27T17:42:44;101358.81;;;20.84;65.75
61337;BME280;47212;41.326;2.104;2023-04-27T17:47:53;101370.31;;;20.78;65.81
61337;BME280;47212;41.326;2.104;2023-04-27T17:52:56;101373.97;;;20.64;65.99
61337;BME280;47212;41.326;2.104;2023-04-27T17:57:58;101389.50;;;20.52;68.02
61337;BME280;47212;41.326;2.104;2023-04-27T18:03:02;101402.53;;;20.38;69.42
61337;BME280;47212;41.326;2.104;2023-04-27T18:08:05;101415.75;;;20.27;70.29
61337;BME280;47212;41.326;2.104;2023-04-27T18:13:07;101446.72;;;20.15;71.18
61337;BME280;47212;41.326;2.104;2023-04-27T18:18:18;101449.38;;;20.07;72.87
61337;BME280;47212;41.326;2.104;2023-04-27T18:23:25;101457.16;;;19.91;73.78
61337;BME280;47212;41.326;2.104;2023-04-27T18:28:27;101461.03;;;19.76;75.92
61337;BME280;47212;41.326;2.104;2023-04-27T18:33:29;101475.34;;;19.64;76.34
61337;BME280;47212;41.326;2.104;2023-04-27T18:38:32;101478.81;;;19.56;77.42
61337;BME280;47212;41.326;2.104;2023-04-27T18:43:34;101481.44;;;19.48;78.62
61337;BME280;47212;41.326;2.104;2023-04-27T18:48:39;101494.09;;;19.35;79.75
61337;BME280;47212;41.326;2.104;2023-04-27T18:53:41;101489.91;;;19.37;79.74
61337;BME280;47212;41.326;2.104;2023-04-27T18:58:44;101506.97;;;19.39;79.89
61337;BME280;47212;41.326;2.104;2023-04-27T19:03:46;101497.66;;;19.35;80.41
61337;BME280;47212;41.326;2.104;2023-04-27T19:08:49;101494.25;;;19.25;80.30
61337;BME280;47212;41.326;2.104;2023-04-27T19:13:51;101504.56;;;19.19;80.99
61337;BME280;47212;41.326;2.104;2023-04-27T19:18:54;101512.63;;;19.16;81.28
61337;BME280;47212;41.326;2.104;2023-04-27T19:23:56;101533.06;;;19.15;80.84
61337;BME280;47212;41.326;2.104;2023-04-27T19:29:01;101552.63;;;19.18;80.56
61337;BME280;47212;41.326;2.104;2023-04-27T19:34:03;101557.44;;;19.26;80.31
61337;BME280;47212;41.326;2.104;2023-04-27T19:39:06;101558.78;;;19.29;80.07
61337;BME280;47212;41.326;2.104;2023-04-27T19:44:08;101562.16;;;19.26;80.56
61337;BME280;47212;41.326;2.104;2023-04-27T19:49:10;101572.16;;;19.22;81.08
61337;BME280;47212;41.326;2.104;2023-04-27T19:54:13;101560.44;;;19.11;81.15
61337;BME280;47212;41.326;2.104;2023-04-27T19:59:15;101572.59;;;19.10;81.18
61337;BME280;47212;41.326;2.104;2023-04-27T20:04:17;101581.72;;;19.11;81.00
61337;BME280;47212;41.326;2.104;2023-04-27T20:09:20;101584.16;;;19.12;80.96
61337;BME280;47212;41.326;2.104;2023-04-27T20:14:22;101583.34;;;19.12;81.00
61337;BME280;47212;41.326;2.104;2023-04-27T20:19:25;101594.09;;;19.13;80.94
61337;BME280;47212;41.326;2.104;2023-04-27T20:24:28;101597.44;;;19.10;81.10
61337;BME280;47212;41.326;2.104;2023-04-27T20:29:30;101589.72;;;19.07;81.42
61337;BME280;47212;41.326;2.104;2023-04-27T20:34:33;101606.38;;;19.02;81.27
61337;BME280;47212;41.326;2.104;2023-04-27T20:39:36;101596.97;;;19.03;81.41
61337;BME280;47212;41.326;2.104;2023-04-27T20:44:38;101595.56;;;19.05;81.26
61337;BME280;47212;41.326;2.104;2023-04-27T20:49:40;101591.16;;;19.04;81.49
61337;BME280;47212;41.326;2.104;2023-04-27T20:54:46;101597.78;;;19.03;81.62
61337;BME280;47212;41.326;2.104;2023-04-27T20:59:48;101582.34;;;19.02;81.66
61337;BME280;47212;41.326;2.104;2023-04-27T21:04:51;101588.47;;;18.99;81.74
61337;BME280;47212;41.326;2.104;2023-04-27T21:09:53;101586.81;;;18.98;81.80
61337;BME280;47212;41.326;2.104;2023-04-27T21:14:56;101595.09;;;18.98;81.71
61337;BME280;47212;41.326;2.104;2023-04-27T21:19:58;101590.41;;;18.99;81.48
61337;BME280;47212;41.326;2.104;2023-04-27T21:25:00;101586.81;;;18.98;81.25
61337;BME280;47212;41.326;2.104;2023-04-27T21:30:02;101587.94;;;18.97;80.81
61337;BME280;47212;41.326;2.104;2023-04-27T21:35:06;101593.09;;;19.04;80.76
61337;BME280;47212;41.326;2.104;2023-04-27T21:40:09;101588.16;;;19.01;80.46
61337;BME280;47212;41.326;2.104;2023-04-27T21:45:11;101589.59;;;18.98;80.57
61337;BME280;47212;41.326;2.104;2023-04-27T21:50:13;101593.47;;;18.97;80.77
61337;BME280;47212;41.326;2.104;2023-04-27T21:55:17;101595.69;;;18.95;81.09
61337;BME280;47212;41.326;2.104;2023-04-27T22:00:19;101594.88;;;18.95;81.09
61337;BME280;47212;41.326;2.104;2023-04-27T22:05:22;101599.59;;;18.94;81.40
61337;BME280;47212;41.326;2.104;2023-04-27T22:10:30;101594.88;;;18.95;81.53
61337;BME280;47212;41.326;2.104;2023-04-27T22:15:32;101597.94;;;18.93;81.81
61337;BME280;47212;41.326;2.104;2023-04-27T22:20:34;101581.38;;;18.93;81.90
61337;BME280;47212;41.326;2.104;2023-04-27T22:25:36;101593.53;;;18.92;82.14
61337;BME280;47212;41.326;2.104;2023-04-27T22:30:39;101607.34;;;18.92;82.09
61337;BME280;47212;41.326;2.104;2023-04-27T22:35:42;101601.81;;;18.92;82.17
61337;BME280;47212;41.326;2.104;2023-04-27T22:40:45;101603.75;;;18.92;82.55
61337;BME280;47212;41.326;2.104;2023-04-27T22:45:47;101599.66;;;18.89;82.79
61337;BME280;47212;41.326;2.104;2023-04-27T22:50:49;101600.78;;;18.88;82.90
61337;BME280;47212;41.326;2.104;2023-04-27T22:55:51;101617.31;;;18.88;82.98
61337;BME280;47212;41.326;2.104;2023-04-27T23:00:53;101607.69;;;18.86;83.29
61337;BME280;47212;41.326;2.104;2023-04-27T23:05:55;101611.56;;;18.85;83.51
61337;BME280;47212;41.326;2.104;2023-04-27T23:11:01;101613.50;;;18.84;83.58
61337;BME280;47212;41.326;2.104;2023-04-27T23:16:05;101618.50;;;18.82;83.81
61337;BME280;47212;41.326;2.104;2023-04-27T23:21:07;101607.25;;;18.78;83.98
61337;BME280;47212;41.326;2.104;2023-04-27T23:26:15;101594.56;;;18.77;83.92
61337;BME280;47212;41.326;2.104;2023-04-27T23:31:17;101600.38;;;18.76;83.91
61337;BME280;47212;41.326;2.104;2023-04-27T23:36:19;101605.91;;;18.76;83.80
61337;BME280;47212;41.326;2.104;2023-04-27T23:41:21;101606.44;;;18.78;83.95
61337;BME280;47212;41.326;2.104;2023-04-27T23:46:26;101605.59;;;18.77;83.74
61337;BME280;47212;41.326;2.104;2023-04-27T23:51:29;101609.25;;;18.73;83.65
61337;BME280;47212;41.326;2.104;2023-04-27T23:56:31;101603.50;;;18.69;83.49
